Delta — PDPC — position and weather

sailwx.info

Track history (hours):
 
Tides and Currents Weather Stations Pressure Air Temp Water Temp Dewpoint Dewpoint Depression Visibility Wind Speed Wind Dir Waves Ship Positions

Oceanographic research ship Delta (Netherlands)

Detailed information on ship capabilities available from University of Delaware's Ocean Information Center.

Last reported at 2018-Jan-22 15:50 UTC. Time now 2018-Jan-22 21:49 UTC.
Position N 51°35' E 003°54'.

MMSI: 244696464.

Date/timePositionNaut miles runAvg speedWind from/ knotsBaromVisibWave heightAir tempDewpointWater temp
2018-Jan-22 15:50N 51°35' E 003°54'2 6.5
2018-Jan-22 15:28N 51°33' E 003°56'4 7.0
2018-Jan-22 14:57N 51°31' E 004°01'3 7.7
2018-Jan-22 14:31N 51°28' E 004°00'2 3.6
2018-Jan-22 14:01N 51°26' E 004°01'3 6.6
2018-Jan-22 13:30N 51°24' E 004°05'3 5.1
2018-Jan-22 12:59N 51°23' E 004°09'3 5.6
2018-Jan-22 12:30N 51°22' E 004°13'2 3.8
2018-Jan-22 12:00N 51°21' E 004°15'0 0.1
2018-Jan-22 11:30N 51°21' E 004°15'0 0.0
2018-Jan-22 11:00N 51°21' E 004°15'0 0.1
2018-Jan-22 10:30N 51°21' E 004°15'0 0.0
2018-Jan-22 10:01N 51°21' E 004°15'0 0.0
2018-Jan-22 09:30N 51°21' E 004°15'2 4.5
2018-Jan-22 09:00N 51°23' E 004°13'3 5.5
2018-Jan-22 08:28N 51°22' E 004°08'2 5.0
2018-Jan-22 08:01N 51°23' E 004°05'3 6.1
2018-Jan-22 07:30N 51°26' E 004°02'2 3.1
2018-Jan-22 07:00N 51°27' E 004°01'0 0.0
2018-Jan-22 06:31N 51°27' E 004°01'0 0.0
2018-Jan-22 06:00N 51°27' E 004°01'0 0.0
2018-Jan-22 05:30N 51°27' E 004°01'0 0.0
2018-Jan-22 04:59N 51°27' E 004°01'0 0.0
2018-Jan-22 04:29N 51°27' E 004°01'0 0.0
2018-Jan-22 03:54N 51°27' E 004°01'0 0.0
2018-Jan-22 03:30N 51°27' E 004°01'0 0.0
2018-Jan-22 02:58N 51°27' E 004°01'0 0.0
2018-Jan-22 02:23N 51°27' E 004°01'0 0.0
2018-Jan-22 02:01N 51°27' E 004°01'0 0.0
2018-Jan-22 01:30N 51°27' E 004°01'0 0.0
2018-Jan-22 00:25N 51°27' E 004°01'0 0.0
2018-Jan-21 23:57N 51°27' E 004°01'0 0.0
2018-Jan-21 23:05N 51°27' E 004°01'0 0.0
2018-Jan-21 22:44N 51°27' E 004°01'0 0.0
2018-Jan-21 21:43N 51°27' E 004°01'0 0.0
2018-Jan-21 21:18N 51°27' E 004°01'0 0.0
2018-Jan-21 20:52N 51°27' E 004°01'0 0.0
2018-Jan-21 20:29N 51°27' E 004°01'0 0.0
2018-Jan-21 20:00N 51°27' E 004°01'0 0.0
2018-Jan-21 19:29N 51°27' E 004°01'0 0.0
2018-Jan-21 19:00N 51°27' E 004°01'0 0.0
2018-Jan-21 18:30N 51°27' E 004°01'0 0.0
2018-Jan-21 18:00N 51°27' E 004°01'0 0.0
2018-Jan-21 17:30N 51°27' E 004°01'0 0.0
2018-Jan-21 17:00N 51°27' E 004°01'0 0.0
2018-Jan-21 16:29N 51°27' E 004°01'0 0.0
2018-Jan-21 15:58N 51°27' E 004°01'0 0.0
2018-Jan-21 15:29N 51°27' E 004°01'0 0.0
2018-Jan-21 15:01N 51°27' E 004°01'0 0.0
2018-Jan-21 14:30N 51°27' E 004°01'0 0.0
2018-Jan-21 13:56N 51°27' E 004°01'0 0.0
2018-Jan-21 13:25N 51°27' E 004°01'0 0.0
2018-Jan-21 12:55N 51°27' E 004°01'0 0.0
2018-Jan-21 12:29N 51°27' E 004°01'0 0.0
2018-Jan-21 11:41N 51°27' E 004°01'0 0.0
2018-Jan-21 10:53N 51°27' E 004°01'0 0.0
2018-Jan-21 09:50N 51°27' E 004°01'0 0.0
2018-Jan-21 09:30N 51°27' E 004°01'0 0.0
2018-Jan-21 08:57N 51°27' E 004°01'0 0.0
2018-Jan-21 08:28N 51°27' E 004°01'0 0.0
2018-Jan-21 08:01N 51°27' E 004°01'0 0.0
2018-Jan-21 07:30N 51°27' E 004°01'0 0.0
2018-Jan-21 06:55N 51°27' E 004°01'0 0.0
2018-Jan-21 06:30N 51°27' E 004°01'0 0.0
2018-Jan-21 06:01N 51°27' E 004°01'0 0.0
2018-Jan-21 05:30N 51°27' E 004°01'0 0.0
2018-Jan-21 05:00N 51°27' E 004°01'0 0.0
2018-Jan-21 04:30N 51°27' E 004°01'0 0.0
2018-Jan-21 04:01N 51°27' E 004°01'0 0.0
2018-Jan-21 03:30N 51°27' E 004°01'0 0.0
2018-Jan-21 03:01N 51°27' E 004°01'0 0.0
2018-Jan-21 02:31N 51°27' E 004°01'0 0.0
2018-Jan-21 01:58N 51°27' E 004°01'0 0.0
2018-Jan-21 01:27N 51°27' E 004°01'0 0.0
2018-Jan-21 01:00N 51°27' E 004°01'0 0.0
2018-Jan-21 00:30N 51°27' E 004°01'0 0.0
2018-Jan-20 23:59N 51°27' E 004°01'0 0.0
2018-Jan-20 23:29N 51°27' E 004°01'0 0.0
2018-Jan-20 22:56N 51°27' E 004°01'0 0.0
2018-Jan-20 22:26N 51°27' E 004°01'0 0.0
2018-Jan-20 21:56N 51°27' E 004°01'0 0.0
2018-Jan-20 21:30N 51°27' E 004°01'0 0.0
2018-Jan-20 20:58N 51°27' E 004°01'0 0.0
2018-Jan-20 20:30N 51°27' E 004°01'0 0.0
2018-Jan-20 20:00N 51°27' E 004°01'0 0.0
2018-Jan-20 19:28N 51°27' E 004°01'0 0.0
2018-Jan-20 18:54N 51°27' E 004°01'0 0.0
2018-Jan-20 18:30N 51°27' E 004°01'0 0.0
2018-Jan-20 18:00N 51°27' E 004°01'0 0.0
2018-Jan-20 17:30N 51°27' E 004°01'0 0.0
2018-Jan-20 17:00N 51°27' E 004°01'0 0.0
2018-Jan-20 16:29N 51°27' E 004°01'0 0.0
2018-Jan-20 16:01N 51°27' E 004°01'0 0.0
2018-Jan-20 15:30N 51°27' E 004°01'0 0.0
2018-Jan-20 14:57N 51°27' E 004°01'0 0.0
2018-Jan-20 14:30N 51°27' E 004°01'0 0.0
2018-Jan-20 14:00N 51°27' E 004°01'0 0.0
2018-Jan-20 13:30N 51°27' E 004°01'0 0.0
2018-Jan-20 12:56N 51°27' E 004°01'0 0.0
2018-Jan-20 12:29N 51°27' E 004°01'0 0.0
2018-Jan-20 11:46N 51°27' E 004°01'0 0.0
2018-Jan-20 09:55N 51°27' E 004°01'0 0.0
2018-Jan-20 09:05N 51°27' E 004°01'0 0.0
2018-Jan-20 08:41N 51°27' E 004°01'0 0.0
2018-Jan-20 08:29N 51°27' E 004°01'0 0.0
2018-Jan-20 08:00N 51°27' E 004°01'0 0.0
2018-Jan-20 07:29N 51°27' E 004°01'0 0.0
2018-Jan-20 07:00N 51°27' E 004°01'0 0.0
2018-Jan-20 06:30N 51°27' E 004°01'0 0.0
2018-Jan-20 05:57N 51°27' E 004°01'0 0.0
2018-Jan-20 05:29N 51°27' E 004°01'0 0.0
2018-Jan-20 05:01N 51°27' E 004°01'0 0.0
2018-Jan-20 04:31N 51°27' E 004°01'0 0.0
2018-Jan-20 04:01N 51°27' E 004°01'0 0.0
2018-Jan-20 03:29N 51°27' E 004°01'0 0.0
2018-Jan-20 03:00N 51°27' E 004°01'0 0.0
2018-Jan-20 02:31N 51°27' E 004°01'0 0.0
2018-Jan-20 02:00N 51°27' E 004°01'0 0.0
2018-Jan-20 01:27N 51°27' E 004°01'0 0.0
2018-Jan-20 01:00N 51°27' E 004°01'0 0.0
2018-Jan-20 00:28N 51°27' E 004°01'0 0.0
2018-Jan-20 00:00N 51°27' E 004°01'0 0.0
2018-Jan-19 23:30N 51°27' E 004°01'0 0.0
2018-Jan-19 22:57N 51°27' E 004°01'0 0.0
2018-Jan-19 22:29N 51°27' E 004°01'0 0.0
2018-Jan-19 20:56N 51°27' E 004°01'0 0.0
2018-Jan-19 20:30N 51°27' E 004°01'0 0.0
2018-Jan-19 19:58N 51°27' E 004°01'0 0.0
2018-Jan-19 19:30N 51°27' E 004°01'0 0.0
2018-Jan-19 18:57N 51°27' E 004°01'0 0.0
2018-Jan-19 18:30N 51°27' E 004°01'0 0.0
2018-Jan-19 17:59N 51°27' E 004°01'0 0.0
2018-Jan-19 17:22N 51°27' E 004°01'0 0.0
2018-Jan-19 17:01N 51°27' E 004°01'0 0.0
2018-Jan-19 16:30N 51°27' E 004°01'0 0.0
2018-Jan-19 15:58N 51°27' E 004°01'0 0.0
2018-Jan-19 15:30N 51°27' E 004°01'0 0.0
2018-Jan-19 14:51N 51°27' E 004°01'0 0.0
2018-Jan-19 14:28N 51°27' E 004°01'0 0.0
2018-Jan-19 14:00N 51°27' E 004°01'0 0.0
2018-Jan-19 13:30N 51°27' E 004°01'0 0.0
2018-Jan-19 12:59N 51°27' E 004°01'0 0.0
2018-Jan-19 12:26N 51°27' E 004°01'0 0.0
2018-Jan-19 12:00N 51°27' E 004°01'0 0.0
2018-Jan-19 11:19N 51°27' E 004°01'0 0.0
2018-Jan-19 10:57N 51°27' E 004°01'0 0.3
2018-Jan-19 10:29N 51°27' E 004°01'1 2.8
2018-Jan-19 10:01N 51°29' E 004°00'3 6.6
2018-Jan-19 09:30N 51°32' E 003°59'12 0.4
2018-Jan-18 02:04N 51°37' E 003°41'  
Track history (hours):
 
Tides and Currents Weather Stations Pressure Air Temp Water Temp Dewpoint Dewpoint Depression Visibility Wind Speed Wind Dir Waves Ship Positions

Oceanographic research ship Delta (Netherlands)

Detailed information on ship capabilities available from University of Delaware's Ocean Information Center.

Last reported at 2018-Jan-22 15:50 UTC. Time now 2018-Jan-22 21:49 UTC.
Position N 51°35' E 003°54'.

MMSI: 244696464.

Date/timePositionNaut miles runAvg speedWind from/ knotsBaromVisibWave heightAir tempDewpointWater temp
2018-Jan-22 15:50N 51°35' E 003°54'2 6.5
2018-Jan-22 15:28N 51°33' E 003°56'4 7.0
2018-Jan-22 14:57N 51°31' E 004°01'3 7.7
2018-Jan-22 14:31N 51°28' E 004°00'2 3.6
2018-Jan-22 14:01N 51°26' E 004°01'3 6.6
2018-Jan-22 13:30N 51°24' E 004°05'3 5.1
2018-Jan-22 12:59N 51°23' E 004°09'3 5.6
2018-Jan-22 12:30N 51°22' E 004°13'2 3.8
2018-Jan-22 12:00N 51°21' E 004°15'0 0.1
2018-Jan-22 11:30N 51°21' E 004°15'0 0.0
2018-Jan-22 11:00N 51°21' E 004°15'0 0.1
2018-Jan-22 10:30N 51°21' E 004°15'0 0.0
2018-Jan-22 10:01N 51°21' E 004°15'0 0.0
2018-Jan-22 09:30N 51°21' E 004°15'2 4.5
2018-Jan-22 09:00N 51°23' E 004°13'3 5.5
2018-Jan-22 08:28N 51°22' E 004°08'2 5.0
2018-Jan-22 08:01N 51°23' E 004°05'3 6.1
2018-Jan-22 07:30N 51°26' E 004°02'2 3.1
2018-Jan-22 07:00N 51°27' E 004°01'0 0.0
2018-Jan-22 06:31N 51°27' E 004°01'0 0.0
2018-Jan-22 06:00N 51°27' E 004°01'0 0.0
2018-Jan-22 05:30N 51°27' E 004°01'0 0.0
2018-Jan-22 04:59N 51°27' E 004°01'0 0.0
2018-Jan-22 04:29N 51°27' E 004°01'0 0.0
2018-Jan-22 03:54N 51°27' E 004°01'0 0.0
2018-Jan-22 03:30N 51°27' E 004°01'0 0.0
2018-Jan-22 02:58N 51°27' E 004°01'0 0.0
2018-Jan-22 02:23N 51°27' E 004°01'0 0.0
2018-Jan-22 02:01N 51°27' E 004°01'0 0.0
2018-Jan-22 01:30N 51°27' E 004°01'0 0.0
2018-Jan-22 00:25N 51°27' E 004°01'0 0.0
2018-Jan-21 23:57N 51°27' E 004°01'0 0.0
2018-Jan-21 23:05N 51°27' E 004°01'0 0.0
2018-Jan-21 22:44N 51°27' E 004°01'0 0.0
2018-Jan-21 21:43N 51°27' E 004°01'0 0.0
2018-Jan-21 21:18N 51°27' E 004°01'0 0.0
2018-Jan-21 20:52N 51°27' E 004°01'0 0.0
2018-Jan-21 20:29N 51°27' E 004°01'0 0.0
2018-Jan-21 20:00N 51°27' E 004°01'0 0.0
2018-Jan-21 19:29N 51°27' E 004°01'0 0.0
2018-Jan-21 19:00N 51°27' E 004°01'0 0.0
2018-Jan-21 18:30N 51°27' E 004°01'0 0.0
2018-Jan-21 18:00N 51°27' E 004°01'0 0.0
2018-Jan-21 17:30N 51°27' E 004°01'0 0.0
2018-Jan-21 17:00N 51°27' E 004°01'0 0.0
2018-Jan-21 16:29N 51°27' E 004°01'0 0.0
2018-Jan-21 15:58N 51°27' E 004°01'0 0.0
2018-Jan-21 15:29N 51°27' E 004°01'0 0.0
2018-Jan-21 15:01N 51°27' E 004°01'0 0.0
2018-Jan-21 14:30N 51°27' E 004°01'0 0.0
2018-Jan-21 13:56N 51°27' E 004°01'0 0.0
2018-Jan-21 13:25N 51°27' E 004°01'0 0.0
2018-Jan-21 12:55N 51°27' E 004°01'0 0.0
2018-Jan-21 12:29N 51°27' E 004°01'0 0.0
2018-Jan-21 11:41N 51°27' E 004°01'0 0.0
2018-Jan-21 10:53N 51°27' E 004°01'0 0.0
2018-Jan-21 09:50N 51°27' E 004°01'0 0.0
2018-Jan-21 09:30N 51°27' E 004°01'0 0.0
2018-Jan-21 08:57N 51°27' E 004°01'0 0.0
2018-Jan-21 08:28N 51°27' E 004°01'0 0.0
2018-Jan-21 08:01N 51°27' E 004°01'0 0.0
2018-Jan-21 07:30N 51°27' E 004°01'0 0.0
2018-Jan-21 06:55N 51°27' E 004°01'0 0.0
2018-Jan-21 06:30N 51°27' E 004°01'0 0.0
2018-Jan-21 06:01N 51°27' E 004°01'0 0.0
2018-Jan-21 05:30N 51°27' E 004°01'0 0.0
2018-Jan-21 05:00N 51°27' E 004°01'0 0.0
2018-Jan-21 04:30N 51°27' E 004°01'0 0.0
2018-Jan-21 04:01N 51°27' E 004°01'0 0.0
2018-Jan-21 03:30N 51°27' E 004°01'0 0.0
2018-Jan-21 03:01N 51°27' E 004°01'0 0.0
2018-Jan-21 02:31N 51°27' E 004°01'0 0.0
2018-Jan-21 01:58N 51°27' E 004°01'0 0.0
2018-Jan-21 01:27N 51°27' E 004°01'0 0.0
2018-Jan-21 01:00N 51°27' E 004°01'0 0.0
2018-Jan-21 00:30N 51°27' E 004°01'0 0.0
2018-Jan-20 23:59N 51°27' E 004°01'0 0.0
2018-Jan-20 23:29N 51°27' E 004°01'0 0.0
2018-Jan-20 22:56N 51°27' E 004°01'0 0.0
2018-Jan-20 22:26N 51°27' E 004°01'0 0.0
2018-Jan-20 21:56N 51°27' E 004°01'0 0.0
2018-Jan-20 21:30N 51°27' E 004°01'0 0.0
2018-Jan-20 20:58N 51°27' E 004°01'0 0.0
2018-Jan-20 20:30N 51°27' E 004°01'0 0.0
2018-Jan-20 20:00N 51°27' E 004°01'0 0.0
2018-Jan-20 19:28N 51°27' E 004°01'0 0.0
2018-Jan-20 18:54N 51°27' E 004°01'0 0.0
2018-Jan-20 18:30N 51°27' E 004°01'0 0.0
2018-Jan-20 18:00N 51°27' E 004°01'0 0.0
2018-Jan-20 17:30N 51°27' E 004°01'0 0.0
2018-Jan-20 17:00N 51°27' E 004°01'0 0.0
2018-Jan-20 16:29N 51°27' E 004°01'0 0.0
2018-Jan-20 16:01N 51°27' E 004°01'0 0.0
2018-Jan-20 15:30N 51°27' E 004°01'0 0.0
2018-Jan-20 14:57N 51°27' E 004°01'0 0.0
2018-Jan-20 14:30N 51°27' E 004°01'0 0.0
2018-Jan-20 14:00N 51°27' E 004°01'0 0.0
2018-Jan-20 13:30N 51°27' E 004°01'0 0.0
2018-Jan-20 12:56N 51°27' E 004°01'0 0.0
2018-Jan-20 12:29N 51°27' E 004°01'0 0.0
2018-Jan-20 11:46N 51°27' E 004°01'0 0.0
2018-Jan-20 09:55N 51°27' E 004°01'0 0.0
2018-Jan-20 09:05N 51°27' E 004°01'0 0.0
2018-Jan-20 08:41N 51°27' E 004°01'0 0.0
2018-Jan-20 08:29N 51°27' E 004°01'0 0.0
2018-Jan-20 08:00N 51°27' E 004°01'0 0.0
2018-Jan-20 07:29N 51°27' E 004°01'0 0.0
2018-Jan-20 07:00N 51°27' E 004°01'0 0.0
2018-Jan-20 06:30N 51°27' E 004°01'0 0.0
2018-Jan-20 05:57N 51°27' E 004°01'0 0.0
2018-Jan-20 05:29N 51°27' E 004°01'0 0.0
2018-Jan-20 05:01N 51°27' E 004°01'0 0.0
2018-Jan-20 04:31N 51°27' E 004°01'0 0.0
2018-Jan-20 04:01N 51°27' E 004°01'0 0.0
2018-Jan-20 03:29N 51°27' E 004°01'0 0.0
2018-Jan-20 03:00N 51°27' E 004°01'0 0.0
2018-Jan-20 02:31N 51°27' E 004°01'0 0.0
2018-Jan-20 02:00N 51°27' E 004°01'0 0.0
2018-Jan-20 01:27N 51°27' E 004°01'0 0.0
2018-Jan-20 01:00N 51°27' E 004°01'0 0.0
2018-Jan-20 00:28N 51°27' E 004°01'0 0.0
2018-Jan-20 00:00N 51°27' E 004°01'0 0.0
2018-Jan-19 23:30N 51°27' E 004°01'0 0.0
2018-Jan-19 22:57N 51°27' E 004°01'0 0.0
2018-Jan-19 22:29N 51°27' E 004°01'0 0.0
2018-Jan-19 20:56N 51°27' E 004°01'0 0.0
2018-Jan-19 20:30N 51°27' E 004°01'0 0.0
2018-Jan-19 19:58N 51°27' E 004°01'0 0.0
2018-Jan-19 19:30N 51°27' E 004°01'0 0.0
2018-Jan-19 18:57N 51°27' E 004°01'0 0.0
2018-Jan-19 18:30N 51°27' E 004°01'0 0.0
2018-Jan-19 17:59N 51°27' E 004°01'0 0.0
2018-Jan-19 17:22N 51°27' E 004°01'0 0.0
2018-Jan-19 17:01N 51°27' E 004°01'0 0.0
2018-Jan-19 16:30N 51°27' E 004°01'0 0.0
2018-Jan-19 15:58N 51°27' E 004°01'0 0.0
2018-Jan-19 15:30N 51°27' E 004°01'0 0.0
2018-Jan-19 14:51N 51°27' E 004°01'0 0.0
2018-Jan-19 14:28N 51°27' E 004°01'0 0.0
2018-Jan-19 14:00N 51°27' E 004°01'0 0.0
2018-Jan-19 13:30N 51°27' E 004°01'0 0.0
2018-Jan-19 12:59N 51°27' E 004°01'0 0.0
2018-Jan-19 12:26N 51°27' E 004°01'0 0.0
2018-Jan-19 12:00N 51°27' E 004°01'0 0.0
2018-Jan-19 11:19N 51°27' E 004°01'0 0.0
2018-Jan-19 10:57N 51°27' E 004°01'0 0.3
2018-Jan-19 10:29N 51°27' E 004°01'1 2.8
2018-Jan-19 10:01N 51°29' E 004°00'3 6.6
2018-Jan-19 09:30N 51°32' E 003°59'12 0.4
2018-Jan-18 02:04N 51°37' E 003°41'  

Dump ship's entire track history